sensor_id;sensor_type;location;lat;lon;timestamp;pressure;altitude;pressure_sealevel;temperature;humidity
15568;BME280;7885;42.596;23.044;2023-01-31T00:01:04;92366.03;;;0.25;85.04
15568;BME280;7885;42.596;23.044;2023-01-31T00:03:31;92456.78;;;0.89;84.97
15568;BME280;7885;42.596;23.044;2023-01-31T00:06:08;92450.78;;;0.80;85.23
15568;BME280;7885;42.596;23.044;2023-01-31T00:08:35;92435.78;;;0.75;85.45
15568;BME280;7885;42.596;23.044;2023-01-31T00:11:02;92454.88;;;0.89;85.84
15568;BME280;7885;42.596;23.044;2023-01-31T00:13:28;92448.03;;;0.92;86.09
15568;BME280;7885;42.596;23.044;2023-01-31T00:15:57;92447.94;;;0.88;86.09
15568;BME280;7885;42.596;23.044;2023-01-31T00:18:24;92439.38;;;0.83;86.00
15568;BME280;7885;42.596;23.044;2023-01-31T00:20:51;92430.41;;;0.75;86.02
15568;BME280;7885;42.596;23.044;2023-01-31T00:23:18;92455.72;;;0.93;85.22
15568;BME280;7885;42.596;23.044;2023-01-31T00:25:44;92409.84;;;0.64;85.39
15568;BME280;7885;42.596;23.044;2023-01-31T00:28:11;92445.59;;;0.87;85.65
15568;BME280;7885;42.596;23.044;2023-01-31T00:30:38;92426.09;;;0.71;86.18
15568;BME280;7885;42.596;23.044;2023-01-31T00:33:06;92423.81;;;0.73;85.88
15568;BME280;7885;42.596;23.044;2023-01-31T00:35:36;92398.97;;;0.57;85.87
15568;BME280;7885;42.596;23.044;2023-01-31T00:38:03;92438.38;;;0.72;86.08
15568;BME280;7885;42.596;23.044;2023-01-31T00:40:30;92437.22;;;0.73;85.77
15568;BME280;7885;42.596;23.044;2023-01-31T00:42:56;92445.44;;;0.80;86.20
15568;BME280;7885;42.596;23.044;2023-01-31T00:45:23;92438.38;;;0.72;85.75
15568;BME280;7885;42.596;23.044;2023-01-31T00:47:50;92445.59;;;0.71;86.20
15568;BME280;7885;42.596;23.044;2023-01-31T00:50:19;92454.16;;;0.77;86.74
15568;BME280;7885;42.596;23.044;2023-01-31T00:52:45;92457.63;;;0.77;85.30
15568;BME280;7885;42.596;23.044;2023-01-31T00:55:12;92445.69;;;0.75;84.67
15568;BME280;7885;42.596;23.044;2023-01-31T00:57:39;92437.03;;;0.66;85.68
15568;BME280;7885;42.596;23.044;2023-01-31T01:00:07;92434.59;;;0.45;85.83
15568;BME280;7885;42.596;23.044;2023-01-31T01:02:34;92436.75;;;0.39;86.94
15568;BME280;7885;42.596;23.044;2023-01-31T01:05:01;92430.97;;;0.37;87.12
15568;BME280;7885;42.596;23.044;2023-01-31T01:07:29;92453.69;;;0.43;86.20
15568;BME280;7885;42.596;23.044;2023-01-31T01:09:56;92449.03;;;0.40;87.01
15568;BME280;7885;42.596;23.044;2023-01-31T01:12:23;92480.84;;;0.58;87.09
15568;BME280;7885;42.596;23.044;2023-01-31T01:14:50;92484.72;;;0.60;86.87
15568;BME280;7885;42.596;23.044;2023-01-31T01:17:16;92480.56;;;0.63;87.23
15568;BME280;7885;42.596;23.044;2023-01-31T01:19:43;92448.25;;;0.40;86.25
15568;BME280;7885;42.596;23.044;2023-01-31T01:22:10;92499.41;;;0.66;86.66
15568;BME280;7885;42.596;23.044;2023-01-31T01:24:42;92479.47;;;0.64;86.04
15568;BME280;7885;42.596;23.044;2023-01-31T01:27:09;92496.31;;;0.64;86.65
15568;BME280;7885;42.596;23.044;2023-01-31T01:29:37;92485.94;;;0.63;86.10
15568;BME280;7885;42.596;23.044;2023-01-31T01:32:05;92477.69;;;0.56;86.68
15568;BME280;7885;42.596;23.044;2023-01-31T01:34:32;92465.66;;;0.62;86.92
15568;BME280;7885;42.596;23.044;2023-01-31T01:37:00;92457.66;;;0.49;86.60
15568;BME280;7885;42.596;23.044;2023-01-31T01:39:36;92460.00;;;0.51;86.78
15568;BME280;7885;42.596;23.044;2023-01-31T01:42:05;92454.75;;;0.55;86.01
15568;BME280;7885;42.596;23.044;2023-01-31T01:44:45;92469.63;;;0.68;85.52
15568;BME280;7885;42.596;23.044;2023-01-31T01:47:15;92457.34;;;0.67;86.38
15568;BME280;7885;42.596;23.044;2023-01-31T01:49:45;92403.75;;;0.35;86.25
15568;BME280;7885;42.596;23.044;2023-01-31T01:52:14;92463.16;;;0.69;86.66
15568;BME280;7885;42.596;23.044;2023-01-31T01:54:45;92445.34;;;0.61;87.22
15568;BME280;7885;42.596;23.044;2023-01-31T01:57:19;92459.59;;;0.65;86.55
15568;BME280;7885;42.596;23.044;2023-01-31T01:59:52;92460.97;;;0.59;86.01
15568;BME280;7885;42.596;23.044;2023-01-31T02:02:21;92465.03;;;0.68;86.07
15568;BME280;7885;42.596;23.044;2023-01-31T02:04:49;92482.50;;;0.78;86.71
15568;BME280;7885;42.596;23.044;2023-01-31T02:07:17;92478.25;;;0.77;86.98
15568;BME280;7885;42.596;23.044;2023-01-31T02:09:49;92479.78;;;0.46;87.08
15568;BME280;7885;42.596;23.044;2023-01-31T02:12:20;92479.97;;;0.54;87.07
15568;BME280;7885;42.596;23.044;2023-01-31T02:14:47;92464.22;;;0.52;87.64
15568;BME280;7885;42.596;23.044;2023-01-31T02:17:17;92477.19;;;0.66;87.12
15568;BME280;7885;42.596;23.044;2023-01-31T02:19:55;92486.47;;;0.68;87.06
15568;BME280;7885;42.596;23.044;2023-01-31T02:22:28;92456.75;;;0.58;86.91
15568;BME280;7885;42.596;23.044;2023-01-31T02:28:40;92485.63;;;0.36;87.91
15568;BME280;7885;42.596;23.044;2023-01-31T02:34:11;92488.09;;;0.57;88.24
15568;BME280;7885;42.596;23.044;2023-01-31T02:36:48;92485.50;;;0.61;88.04
15568;BME280;7885;42.596;23.044;2023-01-31T02:39:21;92479.28;;;0.57;86.46
15568;BME280;7885;42.596;23.044;2023-01-31T02:41:56;92502.25;;;0.58;87.37
15568;BME280;7885;42.596;23.044;2023-01-31T02:44:28;92482.03;;;0.44;88.04
15568;BME280;7885;42.596;23.044;2023-01-31T02:47:20;92485.94;;;0.63;87.88
15568;BME280;7885;42.596;23.044;2023-01-31T02:49:55;92489.28;;;0.60;87.41
15568;BME280;7885;42.596;23.044;2023-01-31T02:52:27;92469.94;;;0.50;86.76
15568;BME280;7885;42.596;23.044;2023-01-31T02:55:02;92477.41;;;0.45;87.45
15568;BME280;7885;42.596;23.044;2023-01-31T02:57:49;92468.88;;;0.39;86.22
15568;BME280;7885;42.596;23.044;2023-01-31T03:00:17;92498.09;;;0.60;85.58
15568;BME280;7885;42.596;23.044;2023-01-31T03:02:45;92517.38;;;0.66;84.97
15568;BME280;7885;42.596;23.044;2023-01-31T03:05:16;92540.63;;;0.77;85.74
15568;BME280;7885;42.596;23.044;2023-01-31T03:07:46;92549.56;;;0.81;86.16
15568;BME280;7885;42.596;23.044;2023-01-31T03:13:30;92544.88;;;0.78;86.38
15568;BME280;7885;42.596;23.044;2023-01-31T03:16:06;92557.16;;;0.79;86.62
15568;BME280;7885;42.596;23.044;2023-01-31T03:18:59;92549.06;;;0.64;86.46
15568;BME280;7885;42.596;23.044;2023-01-31T03:21:32;92539.03;;;0.61;87.24
15568;BME280;7885;42.596;23.044;2023-01-31T03:24:01;92548.47;;;0.70;86.93
15568;BME280;7885;42.596;23.044;2023-01-31T03:26:30;92495.41;;;0.44;86.60
15568;BME280;7885;42.596;23.044;2023-01-31T03:28:59;92519.28;;;0.65;86.35
15568;BME280;7885;42.596;23.044;2023-01-31T03:31:29;92547.19;;;0.80;84.53
15568;BME280;7885;42.596;23.044;2023-01-31T03:34:01;92522.72;;;0.66;84.25
15568;BME280;7885;42.596;23.044;2023-01-31T03:36:34;92541.25;;;0.86;83.04
15568;BME280;7885;42.596;23.044;2023-01-31T03:39:10;92557.69;;;1.00;82.68
15568;BME280;7885;42.596;23.044;2023-01-31T03:41:49;92546.19;;;1.00;81.75
15568;BME280;7885;42.596;23.044;2023-01-31T03:44:21;92569.19;;;1.01;82.15
15568;BME280;7885;42.596;23.044;2023-01-31T03:46:53;92560.91;;;1.06;82.17
15568;BME280;7885;42.596;23.044;2023-01-31T03:49:25;92543.09;;;0.98;82.17
15568;BME280;7885;42.596;23.044;2023-01-31T03:51:59;92527.09;;;0.86;82.06
15568;BME280;7885;42.596;23.044;2023-01-31T03:54:32;92558.25;;;1.06;82.21
15568;BME280;7885;42.596;23.044;2023-01-31T03:57:03;92561.00;;;1.10;82.37
15568;BME280;7885;42.596;23.044;2023-01-31T03:59:36;92553.75;;;1.10;82.42
15568;BME280;7885;42.596;23.044;2023-01-31T04:02:07;92551.16;;;1.14;82.40
15568;BME280;7885;42.596;23.044;2023-01-31T04:04:38;92551.59;;;1.16;82.47
15568;BME280;7885;42.596;23.044;2023-01-31T04:07:09;92538.59;;;1.02;82.69
15568;BME280;7885;42.596;23.044;2023-01-31T04:09:36;92543.03;;;1.10;81.65
15568;BME280;7885;42.596;23.044;2023-01-31T04:12:04;92563.59;;;1.22;82.02
15568;BME280;7885;42.596;23.044;2023-01-31T04:14:31;92555.06;;;1.16;82.46
15568;BME280;7885;42.596;23.044;2023-01-31T04:16:58;92575.88;;;1.23;82.33
15568;BME280;7885;42.596;23.044;2023-01-31T04:19:27;92577.38;;;1.20;81.94
15568;BME280;7885;42.596;23.044;2023-01-31T04:21:54;92556.91;;;1.00;82.28
15568;BME280;7885;42.596;23.044;2023-01-31T04:24:22;92567.81;;;1.07;82.66
15568;BME280;7885;42.596;23.044;2023-01-31T04:26:49;92571.81;;;1.13;83.79
15568;BME280;7885;42.596;23.044;2023-01-31T04:29:16;92573.34;;;1.14;83.08
15568;BME280;7885;42.596;23.044;2023-01-31T04:31:43;92580.28;;;1.15;83.63
15568;BME280;7885;42.596;23.044;2023-01-31T04:34:11;92580.72;;;1.17;84.04
15568;BME280;7885;42.596;23.044;2023-01-31T04:36:37;92579.69;;;1.22;84.46
15568;BME280;7885;42.596;23.044;2023-01-31T04:39:04;92583.56;;;1.24;84.57
15568;BME280;7885;42.596;23.044;2023-01-31T04:41:32;92578.91;;;1.21;84.43
15568;BME280;7885;42.596;23.044;2023-01-31T04:43:59;92600.38;;;1.37;84.21
15568;BME280;7885;42.596;23.044;2023-01-31T04:46:26;92590.75;;;1.36;85.05
15568;BME280;7885;42.596;23.044;2023-01-31T04:48:53;92572.19;;;1.27;83.65
15568;BME280;7885;42.596;23.044;2023-01-31T04:51:20;92572.28;;;1.31;82.90
15568;BME280;7885;42.596;23.044;2023-01-31T04:53:47;92593.91;;;1.38;81.85
15568;BME280;7885;42.596;23.044;2023-01-31T04:56:14;92606.44;;;1.49;82.53
15568;BME280;7885;42.596;23.044;2023-01-31T04:58:42;92602.44;;;1.43;81.72
15568;BME280;7885;42.596;23.044;2023-01-31T05:01:09;92597.94;;;1.32;82.63
15568;BME280;7885;42.596;23.044;2023-01-31T05:03:36;92600.09;;;1.42;83.13
15568;BME280;7885;42.596;23.044;2023-01-31T05:06:03;92581.25;;;1.38;83.35
15568;BME280;7885;42.596;23.044;2023-01-31T05:08:30;92603.75;;;1.49;84.02
15568;BME280;7885;42.596;23.044;2023-01-31T05:10:57;92583.50;;;1.36;84.08
15568;BME280;7885;42.596;23.044;2023-01-31T05:13:27;92607.13;;;1.46;83.83
15568;BME280;7885;42.596;23.044;2023-01-31T05:15:58;92610.69;;;1.50;84.53
15568;BME280;7885;42.596;23.044;2023-01-31T05:18:24;92608.78;;;1.51;83.96
15568;BME280;7885;42.596;23.044;2023-01-31T05:20:51;92613.88;;;1.40;84.62
15568;BME280;7885;42.596;23.044;2023-01-31T05:23:18;92608.94;;;1.42;84.97
15568;BME280;7885;42.596;23.044;2023-01-31T05:25:48;92584.03;;;1.26;85.01
15568;BME280;7885;42.596;23.044;2023-01-31T05:28:16;92626.50;;;1.56;85.00
15568;BME280;7885;42.596;23.044;2023-01-31T05:30:43;92584.44;;;1.28;84.63
15568;BME280;7885;42.596;23.044;2023-01-31T05:33:11;92570.84;;;1.21;84.94
15568;BME280;7885;42.596;23.044;2023-01-31T05:35:39;92595.28;;;1.47;84.71
15568;BME280;7885;42.596;23.044;2023-01-31T05:38:07;92558.66;;;1.08;84.85
15568;BME280;7885;42.596;23.044;2023-01-31T05:40:33;92560.91;;;1.06;85.38
15568;BME280;7885;42.596;23.044;2023-01-31T05:43:00;92615.34;;;1.38;85.09
15568;BME280;7885;42.596;23.044;2023-01-31T05:45:29;92577.19;;;1.13;85.58
15568;BME280;7885;42.596;23.044;2023-01-31T05:47:56;92558.84;;;0.99;85.54
15568;BME280;7885;42.596;23.044;2023-01-31T05:50:24;92609.09;;;1.34;85.48
15568;BME280;7885;42.596;23.044;2023-01-31T05:52:52;92629.00;;;1.48;84.87
15568;BME280;7885;42.596;23.044;2023-01-31T05:55:20;92596.53;;;1.22;84.65
15568;BME280;7885;42.596;23.044;2023-01-31T05:57:47;92616.47;;;1.37;84.97
15568;BME280;7885;42.596;23.044;2023-01-31T06:00:14;92646.84;;;1.57;85.00
15568;BME280;7885;42.596;23.044;2023-01-31T06:02:41;92627.38;;;1.60;84.59
15568;BME280;7885;42.596;23.044;2023-01-31T06:05:09;92620.47;;;1.59;84.76
15568;BME280;7885;42.596;23.044;2023-01-31T06:07:38;92630.75;;;1.72;83.88
15568;BME280;7885;42.596;23.044;2023-01-31T06:10:09;92559.44;;;1.24;84.24
15568;BME280;7885;42.596;23.044;2023-01-31T06:12:41;92641.72;;;1.83;83.79
15568;BME280;7885;42.596;23.044;2023-01-31T06:15:12;92645.72;;;1.89;83.44
15568;BME280;7885;42.596;23.044;2023-01-31T06:17:50;92624.25;;;1.89;83.18
15568;BME280;7885;42.596;23.044;2023-01-31T06:20:19;92483.19;;;0.90;82.92
15568;BME280;7885;42.596;23.044;2023-01-31T06:22:50;92575.47;;;1.68;82.95
15568;BME280;7885;42.596;23.044;2023-01-31T06:25:17;92600.56;;;1.75;82.12
15568;BME280;7885;42.596;23.044;2023-01-31T06:27:45;92620.19;;;1.95;82.90
15568;BME280;7885;42.596;23.044;2023-01-31T06:30:13;92597.88;;;1.75;83.41
15568;BME280;7885;42.596;23.044;2023-01-31T06:32:40;92571.41;;;1.58;82.85
15568;BME280;7885;42.596;23.044;2023-01-31T06:35:09;92658.69;;;2.18;82.89
15568;BME280;7885;42.596;23.044;2023-01-31T06:37:35;92637.31;;;2.06;82.34
15568;BME280;7885;42.596;23.044;2023-01-31T06:40:05;92648.56;;;2.27;82.45
15568;BME280;7885;42.596;23.044;2023-01-31T06:42:32;92642.91;;;2.32;81.67
15568;BME280;7885;42.596;23.044;2023-01-31T06:44:58;92656.94;;;2.26;81.63
15568;BME280;7885;42.596;23.044;2023-01-31T06:47:25;92641.94;;;2.25;82.20
15568;BME280;7885;42.596;23.044;2023-01-31T06:49:52;92640.06;;;2.25;81.76
15568;BME280;7885;42.596;23.044;2023-01-31T06:52:19;92643.69;;;2.33;81.47
15568;BME280;7885;42.596;23.044;2023-01-31T06:54:46;92659.66;;;2.45;81.85
15568;BME280;7885;42.596;23.044;2023-01-31T06:57:14;92640.78;;;2.41;81.17
15568;BME280;7885;42.596;23.044;2023-01-31T06:59:40;92640.38;;;2.39;80.13
15568;BME280;7885;42.596;23.044;2023-01-31T07:02:08;92628.34;;;2.33;81.24
15568;BME280;7885;42.596;23.044;2023-01-31T07:04:35;92603.50;;;2.21;81.61
15568;BME280;7885;42.596;23.044;2023-01-31T07:07:02;92652.47;;;2.49;79.96
15568;BME280;7885;42.596;23.044;2023-01-31T07:09:29;92650.16;;;2.47;80.65
15568;BME280;7885;42.596;23.044;2023-01-31T07:11:56;92665.66;;;2.54;81.27
15568;BME280;7885;42.596;23.044;2023-01-31T07:14:24;92660.59;;;2.52;80.38
15568;BME280;7885;42.596;23.044;2023-01-31T07:16:51;92657.50;;;2.50;79.89
15568;BME280;7885;42.596;23.044;2023-01-31T07:19:18;92661.75;;;2.51;80.06
15568;BME280;7885;42.596;23.044;2023-01-31T07:21:45;92635.88;;;2.43;80.16
15568;BME280;7885;42.596;23.044;2023-01-31T07:24:13;92665.28;;;2.55;80.59
15568;BME280;7885;42.596;23.044;2023-01-31T07:26:40;92662.59;;;2.55;80.54
15568;BME280;7885;42.596;23.044;2023-01-31T07:29:08;92665.66;;;2.54;80.86
15568;BME280;7885;42.596;23.044;2023-01-31T07:31:37;92669.53;;;2.57;81.01
15568;BME280;7885;42.596;23.044;2023-01-31T07:34:04;92592.97;;;2.12;81.09
15568;BME280;7885;42.596;23.044;2023-01-31T07:36:31;92639.41;;;2.47;81.59
15568;BME280;7885;42.596;23.044;2023-01-31T07:38:58;92651.09;;;2.55;81.61
15568;BME280;7885;42.596;23.044;2023-01-31T07:41:27;92649.59;;;2.58;82.19
15568;BME280;7885;42.596;23.044;2023-01-31T07:43:54;92668.81;;;2.60;82.52
15568;BME280;7885;42.596;23.044;2023-01-31T07:46:21;92659.31;;;2.46;82.88
15568;BME280;7885;42.596;23.044;2023-01-31T07:48:50;92662.34;;;2.45;81.19
15568;BME280;7885;42.596;23.044;2023-01-31T07:51:16;92619.56;;;2.17;80.60
15568;BME280;7885;42.596;23.044;2023-01-31T07:53:43;92684.00;;;2.52;81.00
15568;BME280;7885;42.596;23.044;2023-01-31T07:56:12;92671.47;;;2.40;81.96
15568;BME280;7885;42.596;23.044;2023-01-31T07:58:41;92678.78;;;2.59;81.02
15568;BME280;7885;42.596;23.044;2023-01-31T08:01:11;92687.22;;;2.58;81.49
15568;BME280;7885;42.596;23.044;2023-01-31T08:03:58;92677.09;;;2.35;80.56
15568;BME280;7885;42.596;23.044;2023-01-31T08:06:26;92688.81;;;2.27;81.36
15568;BME280;7885;42.596;23.044;2023-01-31T08:08:55;92646.81;;;2.03;82.58
15568;BME280;7885;42.596;23.044;2023-01-31T08:11:22;92679.44;;;2.37;82.40
15568;BME280;7885;42.596;23.044;2023-01-31T08:13:49;92591.19;;;1.85;81.98
15568;BME280;7885;42.596;23.044;2023-01-31T08:16:16;92696.69;;;2.51;80.81
15568;BME280;7885;42.596;23.044;2023-01-31T08:18:43;92673.88;;;2.45;82.12
15568;BME280;7885;42.596;23.044;2023-01-31T08:21:14;92607.34;;;2.04;80.57
15568;BME280;7885;42.596;23.044;2023-01-31T08:23:41;92587.19;;;1.94;80.38
15568;BME280;7885;42.596;23.044;2023-01-31T08:26:10;92654.50;;;2.36;80.40
15568;BME280;7885;42.596;23.044;2023-01-31T08:28:38;92650.06;;;2.44;81.37
15568;BME280;7885;42.596;23.044;2023-01-31T08:31:06;92697.56;;;2.75;80.99
15568;BME280;7885;42.596;23.044;2023-01-31T08:33:33;92640.50;;;2.27;81.20
15568;BME280;7885;42.596;23.044;2023-01-31T08:36:07;92695.16;;;2.70;81.08
15568;BME280;7885;42.596;23.044;2023-01-31T08:38:36;92707.28;;;2.64;81.50
15568;BME280;7885;42.596;23.044;2023-01-31T08:41:04;92703.50;;;2.65;81.75
15568;BME280;7885;42.596;23.044;2023-01-31T08:43:31;92678.03;;;2.43;82.35
15568;BME280;7885;42.596;23.044;2023-01-31T08:45:58;92700.91;;;2.52;82.60
15568;BME280;7885;42.596;23.044;2023-01-31T08:48:25;92610.47;;;1.90;82.38
15568;BME280;7885;42.596;23.044;2023-01-31T08:50:53;92656.28;;;2.13;82.96
15568;BME280;7885;42.596;23.044;2023-01-31T08:53:20;92708.69;;;2.58;83.30
15568;BME280;7885;42.596;23.044;2023-01-31T08:55:48;92697.81;;;2.70;82.67
15568;BME280;7885;42.596;23.044;2023-01-31T08:58:15;92686.44;;;2.76;81.98
15568;BME280;7885;42.596;23.044;2023-01-31T09:00:42;92708.63;;;2.89;81.27
15568;BME280;7885;42.596;23.044;2023-01-31T09:03:13;92686.06;;;2.93;82.01
15568;BME280;7885;42.596;23.044;2023-01-31T09:05:42;92695.53;;;2.87;80.88
15568;BME280;7885;42.596;23.044;2023-01-31T09:08:09;92688.66;;;2.90;80.98
15568;BME280;7885;42.596;23.044;2023-01-31T09:10:36;92695.06;;;3.01;80.29
15568;BME280;7885;42.596;23.044;2023-01-31T09:13:05;92673.69;;;3.08;80.44
15568;BME280;7885;42.596;23.044;2023-01-31T09:15:32;92690.69;;;3.50;79.76
15568;BME280;7885;42.596;23.044;2023-01-31T09:17:59;92681.56;;;3.78;79.04
15568;BME280;7885;42.596;23.044;2023-01-31T09:20:26;92683.91;;;4.02;77.22
15568;BME280;7885;42.596;23.044;2023-01-31T09:22:53;92628.69;;;3.66;76.45
15568;BME280;7885;42.596;23.044;2023-01-31T09:25:20;92648.00;;;3.94;75.50
15568;BME280;7885;42.596;23.044;2023-01-31T09:27:47;92690.78;;;4.22;75.02
15568;BME280;7885;42.596;23.044;2023-01-31T09:30:15;92686.03;;;4.38;74.84
15568;BME280;7885;42.596;23.044;2023-01-31T09:32:42;92662.84;;;4.30;74.25
15568;BME280;7885;42.596;23.044;2023-01-31T09:35:10;92667.06;;;4.31;74.12
15568;BME280;7885;42.596;23.044;2023-01-31T09:37:37;92634.63;;;4.24;74.19
15568;BME280;7885;42.596;23.044;2023-01-31T09:40:05;92675.91;;;4.54;73.68
15568;BME280;7885;42.596;23.044;2023-01-31T09:42:35;92659.47;;;4.37;74.30
15568;BME280;7885;42.596;23.044;2023-01-31T09:45:09;92670.81;;;4.49;74.11
15568;BME280;7885;42.596;23.044;2023-01-31T09:47:41;92640.97;;;4.35;73.45
15568;BME280;7885;42.596;23.044;2023-01-31T09:50:17;92659.88;;;5.21;72.94
15568;BME280;7885;42.596;23.044;2023-01-31T09:52:46;92655.63;;;5.87;70.12
15568;BME280;7885;42.596;23.044;2023-01-31T09:55:15;92663.31;;;6.76;68.65
15568;BME280;7885;42.596;23.044;2023-01-31T09:57:49;92664.25;;;7.05;65.46
15568;BME280;7885;42.596;23.044;2023-01-31T10:00:26;92658.00;;;6.90;65.70
15568;BME280;7885;42.596;23.044;2023-01-31T10:03:08;92661.56;;;6.47;67.14
15568;BME280;7885;42.596;23.044;2023-01-31T10:05:47;92654.47;;;5.88;68.82
15568;BME280;7885;42.596;23.044;2023-01-31T10:08:33;92653.66;;;5.17;71.18
15568;BME280;7885;42.596;23.044;2023-01-31T10:11:09;92619.22;;;4.47;72.83
15568;BME280;7885;42.596;23.044;2023-01-31T10:13:42;92572.69;;;3.98;74.68
15568;BME280;7885;42.596;23.044;2023-01-31T10:16:27;92644.44;;;4.36;75.49
15568;BME280;7885;42.596;23.044;2023-01-31T10:19:05;92657.84;;;4.06;76.63
15568;BME280;7885;42.596;23.044;2023-01-31T10:21:41;92634.00;;;3.63;78.25
15568;BME280;7885;42.596;23.044;2023-01-31T10:24:13;92561.09;;;2.84;79.37
15568;BME280;7885;42.596;23.044;2023-01-31T10:26:43;92654.88;;;3.27;80.40
15568;BME280;7885;42.596;23.044;2023-01-31T10:29:20;92491.84;;;2.35;81.04
15568;BME280;7885;42.596;23.044;2023-01-31T10:32:07;92590.22;;;3.20;80.71
15568;BME280;7885;42.596;23.044;2023-01-31T10:34:45;92622.28;;;3.74;78.77
15568;BME280;7885;42.596;23.044;2023-01-31T10:37:25;92620.19;;;3.87;77.19
15568;BME280;7885;42.596;23.044;2023-01-31T10:40:16;92533.09;;;3.49;76.69
15568;BME280;7885;42.596;23.044;2023-01-31T10:43:08;92536.66;;;3.80;76.04
15568;BME280;7885;42.596;23.044;2023-01-31T10:45:42;92537.91;;;4.12;74.72
15568;BME280;7885;42.596;23.044;2023-01-31T10:48:36;92480.13;;;4.06;74.18
15568;BME280;7885;42.596;23.044;2023-01-31T10:51:31;92629.34;;;4.84;73.27
15568;BME280;7885;42.596;23.044;2023-01-31T10:54:27;92621.69;;;4.59;73.20
15568;BME280;7885;42.596;23.044;2023-01-31T10:57:14;92533.66;;;3.85;73.71
15568;BME280;7885;42.596;23.044;2023-01-31T10:59:46;92529.25;;;3.73;74.77
15568;BME280;7885;42.596;23.044;2023-01-31T11:02:24;92572.66;;;3.72;75.96
15568;BME280;7885;42.596;23.044;2023-01-31T11:04:54;92620.75;;;3.96;75.97
15568;BME280;7885;42.596;23.044;2023-01-31T11:07:33;92557.47;;;3.60;76.53
15568;BME280;7885;42.596;23.044;2023-01-31T11:10:21;92482.59;;;2.94;76.69
15568;BME280;7885;42.596;23.044;2023-01-31T11:13:03;92614.88;;;3.68;78.23
15568;BME280;7885;42.596;23.044;2023-01-31T11:15:37;92472.28;;;2.77;77.76
15568;BME280;7885;42.596;23.044;2023-01-31T11:18:24;92615.88;;;3.60;77.64
15568;BME280;7885;42.596;23.044;2023-01-31T11:21:03;92624.13;;;3.47;78.39
15568;BME280;7885;42.596;23.044;2023-01-31T11:23:37;92619.47;;;3.44;78.42
15568;BME280;7885;42.596;23.044;2023-01-31T11:26:06;92466.03;;;2.50;78.40
15568;BME280;7885;42.596;23.044;2023-01-31T11:28:39;92568.91;;;3.12;78.46
15568;BME280;7885;42.596;23.044;2023-01-31T11:31:22;92625.53;;;3.41;78.72
15568;BME280;7885;42.596;23.044;2023-01-31T11:34:09;92624.94;;;3.29;79.15
15568;BME280;7885;42.596;23.044;2023-01-31T11:36:46;92625.72;;;3.29;79.91
15568;BME280;7885;42.596;23.044;2023-01-31T11:39:24;92569.16;;;2.84;79.85
15568;BME280;7885;42.596;23.044;2023-01-31T11:41:52;92540.47;;;2.69;79.73
15568;BME280;7885;42.596;23.044;2023-01-31T11:44:20;92606.47;;;3.27;79.90
15568;BME280;7885;42.596;23.044;2023-01-31T11:46:50;92601.91;;;3.31;80.16
15568;BME280;7885;42.596;23.044;2023-01-31T11:49:28;92607.31;;;3.31;79.88
15568;BME280;7885;42.596;23.044;2023-01-31T11:51:56;92592.47;;;3.18;79.70
15568;BME280;7885;42.596;23.044;2023-01-31T11:54:28;92606.31;;;3.39;79.74
15568;BME280;7885;42.596;23.044;2023-01-31T11:56:56;92584.84;;;3.43;79.29
15568;BME280;7885;42.596;23.044;2023-01-31T11:59:26;92566.56;;;3.29;78.61
15568;BME280;7885;42.596;23.044;2023-01-31T12:01:57;92564.72;;;3.14;78.51
15568;BME280;7885;42.596;23.044;2023-01-31T12:04:29;92554.03;;;2.95;79.14
15568;BME280;7885;42.596;23.044;2023-01-31T12:07:00;92484.50;;;2.51;78.98
15568;BME280;7885;42.596;23.044;2023-01-31T12:09:39;92474.25;;;2.38;79.08
15568;BME280;7885;42.596;23.044;2023-01-31T12:12:22;92483.50;;;2.40;79.14
15568;BME280;7885;42.596;23.044;2023-01-31T12:14:54;92525.34;;;2.61;79.33
15568;BME280;7885;42.596;23.044;2023-01-31T12:17:25;92561.44;;;2.63;79.62
15568;BME280;7885;42.596;23.044;2023-01-31T12:20:54;92621.75;;;3.04;80.42
15568;BME280;7885;42.596;23.044;2023-01-31T12:24:16;92494.28;;;2.06;80.99
15568;BME280;7885;42.596;23.044;2023-01-31T13:26:17;92619.34;;;3.60;77.71
15568;BME280;7885;42.596;23.044;2023-01-31T13:40:08;92613.19;;;4.05;74.86
15568;BME280;7885;42.596;23.044;2023-01-31T14:29:09;92637.19;;;5.96;67.49
15568;BME280;7885;42.596;23.044;2023-01-31T14:31:41;92643.84;;;6.05;67.04
15568;BME280;7885;42.596;23.044;2023-01-31T14:34:14;92652.00;;;6.13;67.10
15568;BME280;7885;42.596;23.044;2023-01-31T14:36:52;92656.91;;;5.67;67.81
15568;BME280;7885;42.596;23.044;2023-01-31T14:39:46;92658.69;;;5.19;69.19
15568;BME280;7885;42.596;23.044;2023-01-31T14:42:39;92651.13;;;4.72;70.29
15568;BME280;7885;42.596;23.044;2023-01-31T14:45:20;92656.41;;;4.38;72.18
15568;BME280;7885;42.596;23.044;2023-01-31T14:48:01;92652.19;;;4.15;73.06
15568;BME280;7885;42.596;23.044;2023-01-31T14:50:37;92615.59;;;3.65;74.36
15568;BME280;7885;42.596;23.044;2023-01-31T14:53:20;92667.25;;;3.74;75.45
15568;BME280;7885;42.596;23.044;2023-01-31T14:56:02;92658.13;;;3.36;75.79
15568;BME280;7885;42.596;23.044;2023-01-31T14:58:34;92682.75;;;3.58;76.69
15568;BME280;7885;42.596;23.044;2023-01-31T15:01:06;92681.53;;;3.55;77.05
15568;BME280;7885;42.596;23.044;2023-01-31T15:03:35;92677.50;;;3.45;77.32
15568;BME280;7885;42.596;23.044;2023-01-31T15:06:07;92701.97;;;3.60;77.03
15568;BME280;7885;42.596;23.044;2023-01-31T15:08:40;92682.28;;;3.55;77.32
15568;BME280;7885;42.596;23.044;2023-01-31T15:11:13;92655.56;;;3.24;77.13
15568;BME280;7885;42.596;23.044;2023-01-31T15:13:43;92673.97;;;3.22;77.77
15568;BME280;7885;42.596;23.044;2023-01-31T15:16:36;92693.22;;;3.24;77.81
15568;BME280;7885;42.596;23.044;2023-01-31T15:19:06;92699.19;;;3.33;78.29
15568;BME280;7885;42.596;23.044;2023-01-31T15:21:38;92638.91;;;2.96;77.81
15568;BME280;7885;42.596;23.044;2023-01-31T15:24:15;92708.25;;;3.44;77.85
15568;BME280;7885;42.596;23.044;2023-01-31T15:26:44;92687.00;;;3.20;77.37
15568;BME280;7885;42.596;23.044;2023-01-31T15:29:15;92701.59;;;3.19;77.30
15568;BME280;7885;42.596;23.044;2023-01-31T15:31:47;92722.38;;;3.22;78.12
15568;BME280;7885;42.596;23.044;2023-01-31T15:34:19;92693.84;;;2.98;78.17
15568;BME280;7885;42.596;23.044;2023-01-31T15:36:54;92724.50;;;3.13;78.36
15568;BME280;7885;42.596;23.044;2023-01-31T15:39:27;92726.59;;;3.04;78.53